Shankleville, Texas
Current Conditions -  °F | °C
As of 10:15 AM on Thursday 30 Oct 2014 (Local Time) from KDRI Reporting Station
Clear Clear  
Wind Chill: 62°   Ceiling: Unl
Heat Index: 62°   Visibility: 10mi
Dew Point: 46°   Wind: 6mph
Humidity: 55%   Direction: 100°E
Pressure: 30.19"   Gusts: NA
Location:  31.0001°N, 93.6355°W
Report Text: KDRI 301515Z AUTO 10005KT 10SM CLR 17/08 A3019 RMK AO2 T01690079
Loading
Personal Weather Stations






























Interactive Weather Map
Tropical Storm Tracking
New forecast layout! Learn more

10-Day Weather Forecast

Advertisements
Track Severe Weather on mobile